usa flag      colorado flag

Language: 

TigerDenWX History Data from Weather Underground


TigerDenWX Weather Station Historical Data
 
Daily Summary for August 14, 2018 Units:  English    Metric   Both
« Previous Day
Next Day »
Daily Weekly Monthly Yearly Custom
  Current: High: Low: Average:
Temperature: 62.8 °F TemperatureF °F 56.5 °F 69.8 °F
Dew Point: 55.5 °F DewpointF °F 51.3 °F 55.1 °F
Humidity: 77 % Humidity % 35 % 62 %
Wind Speed: 2 mph WindSpeedMPH mph 0 mph 1.4 mph
Wind Gust: 19 mph WindSpeedGustMPH mph - -
Wind:NE - - SSE
Pressure: 29.83 in PressureIn in 29.71 in -
Precipitation: 0.01 in      
Historical Graphs
 
 
Tabular Data for August 14, 2018
Time Temperature Dew Point Pressure Wind Wind Speed Wind Gust Humidity Rainfall Rate (Hourly) solar
TemperatureF °F DewpointF °F PressureIn in Calm     Humidity % HourlyPrecipIn in SolarRadiationWatts/m^2 W/m2
00:05 68.2 °F 54.7 °F 29.75 in Calm   5 mph 62 % 0 in 0.00 W/m2
00:09 68.1 °F 55 °F 29.75 in South 2 mph 4 mph 63 % 0 in 0.00 W/m2
00:14 68 °F 54.9 °F 29.74 in South 2 mph 5 mph 63 % 0 in 0.00 W/m2
00:19 67.9 °F 54.8 °F 29.74 in Calm   5 mph 63 % 0 in 0.00 W/m2
00:24 67.7 °F 55.1 °F 29.74 in Calm   5 mph 64 % 0 in 0.00 W/m2
00:30 67.5 °F 54.9 °F 29.74 in ESE 1 mph 4 mph 64 % 0 in 0.00 W/m2
00:35 67.4 °F 54.8 °F 29.74 in Calm   4 mph 64 % 0 in 0.00 W/m2
00:39 67.2 °F 54.6 °F 29.74 in West 2 mph 4 mph 64 % 0 in 0.00 W/m2
00:44 67.1 °F 54.5 °F 29.74 in Calm   6 mph 64 % 0 in 0.00 W/m2
00:50 66.9 °F 54.3 °F 29.74 in South 1 mph 6 mph 64 % 0 in 0.00 W/m2
00:54 66.7 °F 54.6 °F 29.74 in Calm   3 mph 65 % 0 in 0.00 W/m2
00:59 66.5 °F 54.4 °F 29.74 in Calm   3 mph 65 % 0 in 0.00 W/m2
01:04 66.3 °F 54.2 °F 29.74 in Calm   3 mph 65 % 0 in 0.00 W/m2
01:09 66.2 °F 54.5 °F 29.74 in Calm   2 mph 66 % 0 in 0.00 W/m2
01:15 66 °F 54.7 °F 29.74 in SE 2 mph 2 mph 67 % 0 in 0.00 W/m2
01:20 65.9 °F 55 °F 29.74 in Calm   4 mph 68 % 0 in 0.00 W/m2
01:24 65.8 °F 54.9 °F 29.74 in Calm   4 mph 68 % 0 in 0.00 W/m2
01:30 65.7 °F 55.2 °F 29.74 in SSW 1 mph 4 mph 69 % 0 in 0.00 W/m2
01:35 65.6 °F 55.5 °F 29.74 in Calm   3 mph 70 % 0 in 0.00 W/m2
01:39 65.5 °F 55.5 °F 29.74 in WSW 1 mph 7 mph 70 % 0 in 0.00 W/m2
01:44 65.4 °F 55.4 °F 29.74 in Calm   7 mph 70 % 0 in 0.00 W/m2
01:49 65.2 °F 55.6 °F 29.74 in Calm   3 mph 71 % 0 in 0.00 W/m2
01:54 65.1 °F 55.5 °F 29.74 in South 2 mph 4 mph 71 % 0 in 0.00 W/m2
02:00 65 °F 55.4 °F 29.75 in Calm   4 mph 71 % 0 in 0.00 W/m2
02:05 64.8 °F 55.2 °F 29.74 in Calm   4 mph 71 % 0 in 0.00 W/m2
02:09 64.6 °F 55 °F 29.74 in Calm   4 mph 71 % 0 in 0.00 W/m2
02:14 64.5 °F 54.9 °F 29.74 in Calm   4 mph 71 % 0 in 0.00 W/m2
02:20 64.2 °F 55 °F 29.74 in Calm   2 mph 72 % 0 in 0.00 W/m2
02:24 64 °F 54.8 °F 29.74 in Calm   1 mph 72 % 0 in 0.00 W/m2
02:30 63.7 °F 54.5 °F 29.74 in Calm   1 mph 72 % 0 in 0.00 W/m2
02:34 63.4 °F 55 °F 29.74 in Calm   2 mph 74 % 0 in 0.00 W/m2
02:39 63.2 °F 54.8 °F 29.74 in Calm   2 mph 74 % 0 in 0.00 W/m2
02:45 62.9 °F 54.5 °F 29.74 in Calm   4 mph 74 % 0 in 0.00 W/m2
02:50 62.6 °F 54.6 °F 29.74 in Calm   4 mph 75 % 0 in 0.00 W/m2
02:54 62.3 °F 53.9 °F 29.74 in Calm     74 % 0 in 0.00 W/m2
03:00 62 °F 53.6 °F 29.74 in Calm     74 % 0 in 0.00 W/m2
03:05 61.7 °F 53.3 °F 29.74 in Calm     74 % 0 in 0.00 W/m2
03:09 61.4 °F 52.7 °F 29.74 in Calm   1 mph 73 % 0 in 0.00 W/m2
03:15 61 °F 51.9 °F 29.74 in Calm   1 mph 72 % 0 in 0.00 W/m2
03:19 60.8 °F 51.7 °F 29.74 in Calm   1 mph 72 % 0 in 0.00 W/m2
03:24 60.5 °F 51.8 °F 29.74 in Calm     73 % 0 in 0.00 W/m2
03:30 60.3 °F 51.6 °F 29.74 in Calm   1 mph 73 % 0 in 0.00 W/m2
03:35 60.2 °F 51.9 °F 29.75 in Calm   1 mph 74 % 0 in 0.00 W/m2
03:39 60 °F 52.4 °F 29.75 in Calm   1 mph 76 % 0 in 0.00 W/m2
03:44 59.8 °F 52.2 °F 29.75 in Calm   2 mph 76 % 0 in 0.00 W/m2
03:50 59.5 °F 51.9 °F 29.75 in Calm   2 mph 76 % 0 in 0.00 W/m2
03:54 59.4 °F 51.5 °F 29.75 in Calm   2 mph 75 % 0 in 0.00 W/m2
04:00 59.4 °F 51.5 °F 29.75 in Calm   2 mph 75 % 0 in 0.00 W/m2
04:04 59.3 °F 51.4 °F 29.75 in Calm   2 mph 75 % 0 in 0.00 W/m2
04:09 59.3 °F 51.4 °F 29.75 in Calm     75 % 0 in 0.00 W/m2
04:15 59.2 °F 51.3 °F 29.75 in Calm     75 % 0 in 0.00 W/m2
04:20 59.1 °F 51.5 °F 29.75 in Calm     76 % 0 in 0.00 W/m2
04:24 59 °F 51.8 °F 29.75 in Calm   1 mph 77 % 0 in 0.00 W/m2
04:29 58.8 °F 51.6 °F 29.75 in Calm   1 mph 77 % 0 in 0.00 W/m2
04:34 58.6 °F 51.4 °F 29.75 in Calm     77 % 0 in 0.00 W/m2
04:39 58.5 °F 51.7 °F 29.75 in Calm   2 mph 78 % 0 in 0.00 W/m2
04:44 58.4 °F 51.9 °F 29.75 in Calm   2 mph 79 % 0 in 0.00 W/m2
04:49 58.2 °F 52.1 °F 29.75 in Calm   1 mph 80 % 0 in 0.00 W/m2
04:54 58 °F 51.9 °F 29.76 in Calm   1 mph 80 % 0 in 0.00 W/m2
04:59 57.9 °F 51.8 °F 29.75 in Calm     80 % 0 in 0.00 W/m2
05:04 57.7 °F 51.6 °F 29.75 in Calm     80 % 0 in 0.00 W/m2
05:09 57.6 °F 51.5 °F 29.75 in Calm     80 % 0 in 0.00 W/m2
05:14 57.5 °F 51.7 °F 29.76 in Calm     81 % 0 in 0.00 W/m2
05:19 57.5 °F 51.7 °F 29.76 in Calm   2 mph 81 % 0 in 0.00 W/m2
05:24 57.5 °F 51.7 °F 29.76 in Calm   2 mph 81 % 0 in 0.00 W/m2
05:30 57.5 °F 51.7 °F 29.76 in Calm   1 mph 81 % 0 in 0.00 W/m2
05:34 57.4 °F 51.6 °F 29.76 in Calm     81 % 0 in 0.00 W/m2
05:39 57.4 °F 51.9 °F 29.76 in Calm     82 % 0 in 0.00 W/m2
05:44 57.4 °F 51.9 °F 29.76 in Calm     82 % 0 in 0.00 W/m2
05:49 57.3 °F 51.9 °F 29.76 in Calm     82 % 0 in 0.00 W/m2
05:54 57.2 °F 51.8 °F 29.76 in Calm     82 % 0 in 0.00 W/m2
05:59 57.1 °F 51.7 °F 29.76 in Calm     82 % 0 in 0.00 W/m2
06:04 56.9 °F 51.8 °F 29.76 in Calm     83 % 0 in 0.00 W/m2
06:09 56.9 °F 51.8 °F 29.76 in Calm     83 % 0 in 5.00 W/m2
06:14 56.8 °F 52 °F 29.77 in Calm     84 % 0 in 9.00 W/m2
06:19 56.6 °F 51.8 °F 29.77 in Calm     84 % 0 in 14.00 W/m2
06:24 56.6 °F 51.8 °F 29.78 in Calm     84 % 0 in 19.00 W/m2
06:29 56.5 °F 52 °F 29.78 in Calm     85 % 0 in 26.00 W/m2
06:34 56.6 °F 52.5 °F 29.78 in Calm   1 mph 86 % 0 in 32.00 W/m2
06:39 56.9 °F 52.8 °F 29.78 in Calm   3 mph 86 % 0 in 37.00 W/m2
06:44 57.3 °F 53.5 °F 29.78 in West 1 mph 4 mph 87 % 0 in 42.00 W/m2
06:49 57.9 °F 54.1 °F 29.78 in Calm   4 mph 87 % 0 in 47.00 W/m2
06:54 58.2 °F 54.3 °F 29.78 in Calm   3 mph 87 % 0 in 54.00 W/m2
07:00 58.6 °F 54.7 °F 29.78 in Calm   3 mph 87 % 0 in 56.00 W/m2
07:04 58.9 °F 55 °F 29.79 in Calm   3 mph 87 % 0 in 58.00 W/m2
07:09 59.2 °F 55.3 °F 29.79 in Calm   2 mph 87 % 0 in 69.00 W/m2
07:14 59.5 °F 55.3 °F 29.79 in Calm   2 mph 86 % 0 in 69.00 W/m2
07:19 59.8 °F 55.6 °F 29.79 in Calm   2 mph 86 % 0 in 77.00 W/m2
07:24 60.1 °F 55.6 °F 29.79 in Calm   2 mph 85 % 0 in 65.00 W/m2
07:29 60.5 °F 56 °F 29.79 in Calm   2 mph 85 % 0 in 79.00 W/m2
07:34 60.9 °F 56.4 °F 29.79 in WSW 2 mph 4 mph 85 % 0 in 100.00 W/m2
07:39 61.4 °F 56.8 °F 29.80 in Calm   4 mph 85 % 0 in 88.00 W/m2
07:44 62 °F 57.4 °F 29.80 in Calm   5 mph 85 % 0 in 104.00 W/m2
07:49 62.3 °F 57.7 °F 29.80 in NW 2 mph 5 mph 85 % 0 in 102.00 W/m2
07:54 62.6 °F 58 °F 29.80 in WNW 1 mph 5 mph 85 % 0 in 111.00 W/m2
07:59 62.8 °F 58.2 °F 29.80 in NW 2 mph 7 mph 85 % 0 in 105.00 W/m2
08:04 63.1 °F 58.5 °F 29.80 in Calm   7 mph 85 % 0 in 125.00 W/m2
08:09 63.4 °F 58.8 °F 29.80 in NW 4 mph 6 mph 85 % 0 in 135.00 W/m2
08:14 63.6 °F 58.7 °F 29.80 in NW 2 mph 6 mph 84 % 0 in 142.00 W/m2
08:19 63.8 °F 58.9 °F 29.80 in West 2 mph 7 mph 84 % 0 in 155.00 W/m2
08:24 64.1 °F 59.2 °F 29.80 in WSW 3 mph 8 mph 84 % 0 in 167.00 W/m2
08:30 64.3 °F 59 °F 29.80 in Calm   8 mph 83 % 0 in 202.00 W/m2
08:34 64.7 °F 59.4 °F 29.80 in Calm   5 mph 83 % 0 in 183.00 W/m2
08:39 65 °F 59.4 °F 29.80 in Calm   7 mph 82 % 0 in 121.00 W/m2
08:44 65.1 °F 59.1 °F 29.80 in WNW 4 mph 7 mph 81 % 0 in 169.00 W/m2
08:49 65.2 °F 59.2 °F 29.80 in Calm   5 mph 81 % 0 in 404.00 W/m2
08:54 65.5 °F 59.5 °F 29.80 in WSW 1 mph 7 mph 81 % 0 in 359.00 W/m2
08:59 66.1 °F 59.7 °F 29.80 in West 3 mph 7 mph 80 % 0 in 353.00 W/m2
09:04 66.7 °F 60.3 °F 29.80 in Calm   6 mph 80 % 0 in 406.00 W/m2
09:09 67.1 °F 60 °F 29.79 in West 2 mph 6 mph 78 % 0 in 404.00 W/m2
09:14 67.5 °F 60 °F 29.79 in Calm   5 mph 77 % 0 in 397.00 W/m2
09:19 68 °F 60.2 °F 29.80 in West 3 mph 6 mph 76 % 0 in 455.00 W/m2
09:24 68.4 °F 59.8 °F 29.80 in SSW 1 mph 6 mph 74 % 0 in 485.00 W/m2
09:29 69 °F 60.4 °F 29.80 in SW 2 mph 5 mph 74 % 0 in 524.00 W/m2
09:34 69.3 °F 59.9 °F 29.80 in Calm   5 mph 72 % 0 in 531.00 W/m2
09:39 69.7 °F 60.3 °F 29.80 in WSW 4 mph 4 mph 72 % 0 in 557.00 W/m2
09:45 70.4 °F 60.9 °F 29.80 in WSW 5 mph 7 mph 72 % 0 in 559.00 W/m2
09:49 70.8 °F 60.1 °F 29.80 in NNW 1 mph 7 mph 69 % 0 in 578.00 W/m2
09:54 71 °F 60.3 °F 29.80 in Calm   6 mph 69 % 0 in 592.00 W/m2
09:59 71.3 °F 60.2 °F 29.80 in Calm   3 mph 68 % 0 in 608.00 W/m2
10:04 71.9 °F 60.3 °F 29.80 in SW 3 mph 3 mph 67 % 0 in 617.00 W/m2
10:09 72.6 °F 60.6 °F 29.80 in Calm   3 mph 66 % 0 in 640.00 W/m2
10:14 73.5 °F 60.6 °F 29.80 in ESE 2 mph 3 mph 64 % 0 in 650.00 W/m2
10:19 74.2 °F 60.3 °F 29.80 in East 2 mph 4 mph 62 % 0 in 670.00 W/m2
10:24 74.4 °F 59.6 °F 29.80 in ESE 1 mph 5 mph 60 % 0 in 680.00 W/m2
10:29 74.5 °F 59.7 °F 29.80 in East 2 mph 5 mph 60 % 0 in 689.00 W/m2
10:34 74.6 °F 59.8 °F 29.80 in Calm   5 mph 60 % 0 in 696.00 W/m2
10:39 74.6 °F 59.8 °F 29.80 in ESE 2 mph 5 mph 60 % 0 in 696.00 W/m2
10:44 75.1 °F 60.3 °F 29.80 in SE 1 mph 4 mph 60 % 0 in 719.00 W/m2
10:49 75.8 °F 60.4 °F 29.80 in Calm   4 mph 59 % 0 in 735.00 W/m2
10:54 76.4 °F 60 °F 29.80 in Calm   5 mph 57 % 0 in 737.00 W/m2
10:59 76 °F 59.2 °F 29.80 in Calm   5 mph 56 % 0 in 756.00 W/m2
11:04 76 °F 60.2 °F 29.80 in Calm   5 mph 58 % 0 in 766.00 W/m2
11:09 76.2 °F 59.4 °F 29.80 in ESE 3 mph 5 mph 56 % 0 in 772.00 W/m2
11:14 76.6 °F 59.7 °F 29.80 in NNE 2 mph 5 mph 56 % 0 in 786.00 W/m2
11:19 76.9 °F 59 °F 29.80 in Calm   5 mph 54 % 0 in 791.00 W/m2
11:24 77 °F 59.1 °F 29.80 in SE 1 mph 5 mph 54 % 0 in 802.00 W/m2
11:30 77.5 °F 59.5 °F 29.80 in ESE 3 mph 5 mph 54 % 0 in 807.00 W/m2
11:34 77.7 °F 59.2 °F 29.80 in Calm   5 mph 53 % 0 in 817.00 W/m2
11:39 78.3 °F 59.8 °F 29.79 in Calm   4 mph 53 % 0 in 835.00 W/m2
11:44 79.2 °F 59.5 °F 29.79 in Calm   3 mph 51 % 0 in 837.00 W/m2
11:49 79.1 °F 58.9 °F 29.79 in Calm   3 mph 50 % 0 in 786.00 W/m2
11:54 79 °F 59.3 °F 29.79 in NE 4 mph 4 mph 51 % 0 in 840.00 W/m2
11:59 78.4 °F 57.7 °F 29.79 in Calm   4 mph 49 % 0 in 861.00 W/m2
12:04 78.6 °F 58.4 °F 29.78 in NNE 3 mph 4 mph 50 % 0 in 865.00 W/m2
12:09 78.4 °F 57.7 °F 29.78 in Calm   4 mph 49 % 0 in 872.00 W/m2
12:14 78.5 °F 56 °F 29.78 in ESE 1 mph 4 mph 46 % 0 in 893.00 W/m2
12:19 77.9 °F 56 °F 29.77 in Calm   3 mph 47 % 0 in 921.00 W/m2
12:24 78.5 °F 57.2 °F 29.77 in NNE 1 mph 5 mph 48 % 0 in 206.00 W/m2
12:29 78 °F 56.1 °F 29.77 in Calm   5 mph 47 % 0 in 179.00 W/m2
12:34 77.5 °F 56.8 °F 29.77 in ENE 4 mph 4 mph 49 % 0 in 230.00 W/m2
12:39 77.5 °F 56.3 °F 29.77 in North 4 mph 6 mph 48 % 0 in 264.00 W/m2
12:44 78.7 °F 56.2 °F 29.77 in NNE 1 mph 6 mph 46 % 0 in 928.00 W/m2
12:49 79.1 °F 55.9 °F 29.77 in ENE 2 mph 5 mph 45 % 0 in 330.00 W/m2
12:54 78.3 °F 55.2 °F 29.77 in NE 1 mph 5 mph 45 % 0 in 306.00 W/m2
13:00 78.5 °F 54.8 °F 29.76 in Calm   6 mph 44 % 0 in 914.00 W/m2
13:04 79.5 °F 55 °F 29.76 in SE 1 mph 6 mph 43 % 0 in 844.00 W/m2
13:09 79.3 °F 55.5 °F 29.77 in NNE 1 mph 6 mph 44 % 0 in 819.00 W/m2
13:14 80 °F 57.4 °F 29.76 in ESE 8 mph 8 mph 46 % 0 in 911.00 W/m2
13:19 80.7 °F 56.1 °F 29.76 in SE 2 mph 8 mph 43 % 0 in 909.00 W/m2
13:24 80.7 °F 54.1 °F 29.75 in Calm   8 mph 40 % 0 in 926.00 W/m2
13:29 81 °F 55.7 °F 29.75 in ESE 2 mph 5 mph 42 % 0 in 828.00 W/m2
13:34 81.6 °F 55.6 °F 29.75 in East 1 mph 5 mph 41 % 0 in 937.00 W/m2
13:39 82.3 °F 55.6 °F 29.75 in SE 1 mph 5 mph 40 % 0 in 946.00 W/m2
13:45 82.7 °F 55.9 °F 29.75 in NE 2 mph 5 mph 40 % 0 in 937.00 W/m2
13:49 82.8 °F 55.3 °F 29.75 in ESE 2 mph 4 mph 39 % 0 in 935.00 W/m2
13:54 82.9 °F 56.1 °F 29.75 in NE 2 mph 4 mph 40 % 0 in 237.00 W/m2
13:59 81 °F 55.1 °F 29.74 in NE 2 mph 4 mph 41 % 0 in 262.00 W/m2
14:04 81.5 °F 54.2 °F 29.74 in NNE 2 mph 7 mph 39 % 0 in 898.00 W/m2
14:09 81.6 °F 55.6 °F 29.74 in East 2 mph 7 mph 41 % 0 in 881.00 W/m2
14:14 81.6 °F 54.2 °F 29.74 in Calm   5 mph 39 % 0 in 886.00 W/m2
14:19 82 °F 54.6 °F 29.74 in SE 1 mph 8 mph 39 % 0 in 893.00 W/m2
14:24 82.6 °F 54.4 °F 29.74 in Calm   11 mph 38 % 0 in 884.00 W/m2
14:30 83.3 °F 54.3 °F 29.74 in NNE 2 mph 11 mph 37 % 0 in 898.00 W/m2
14:34 82.1 °F 54 °F 29.73 in Calm   5 mph 38 % 0 in 408.00 W/m2
14:39 81.4 °F 52.6 °F 29.73 in NW 1 mph 2 mph 37 % 0 in 461.00 W/m2
14:44 81.2 °F 53.2 °F 29.72 in Calm   3 mph 38 % 0 in 589.00 W/m2
14:49 82.3 °F 53.4 °F 29.72 in Calm   3 mph 37 % 0 in 733.00 W/m2
14:54 82.6 °F 54.4 °F 29.71 in East 1 mph 4 mph 38 % 0 in 432.00 W/m2
14:59 82.1 °F 54 °F 29.71 in SE 1 mph 4 mph 38 % 0 in 369.00 W/m2
15:04 81.4 °F 52.6 °F 29.72 in Calm   4 mph 37 % 0 in 308.00 W/m2
15:09 80.9 °F 52.9 °F 29.71 in SE 4 mph 5 mph 38 % 0 in 239.00 W/m2
15:15 80.4 °F 52.5 °F 29.71 in ESE 2 mph 5 mph 38 % 0 in 295.00 W/m2
15:19 80.2 °F 52.3 °F 29.71 in Calm   5 mph 38 % 0 in 323.00 W/m2
15:24 80.7 °F 53.4 °F 29.72 in NE 5 mph 5 mph 39 % 0 in 295.00 W/m2
15:29 81 °F 53 °F 29.72 in Calm   8 mph 38 % 0 in 438.00 W/m2
15:34 81 °F 52.3 °F 29.72 in ESE 2 mph 8 mph 37 % 0 in 404.00 W/m2
15:39 81.3 °F 53.3 °F 29.72 in NNE 3 mph 7 mph 38 % 0 in 427.00 W/m2
15:44 81.6 °F 54.2 °F 29.72 in NE 6 mph 7 mph 39 % 0 in 552.00 W/m2
15:49 82.2 °F 54.1 °F 29.72 in ESE 1 mph 7 mph 38 % 0 in 680.00 W/m2
15:54 83.1 °F 54.1 °F 29.71 in NNE 3 mph 7 mph 37 % 0 in 768.00 W/m2
15:59 83.6 °F 54.6 °F 29.71 in East 1 mph 6 mph 37 % 0 in 694.00 W/m2
16:04 84 °F 53.4 °F 29.71 in East 2 mph 9 mph 35 % 0 in 640.00 W/m2
16:09 83.6 °F 53.8 °F 29.71 in East 2 mph 9 mph 36 % 0 in 605.00 W/m2
16:14 83.4 °F 53.6 °F 29.71 in ENE 1 mph 9 mph 36 % 0 in 591.00 W/m2
16:19 83.9 °F 54.1 °F 29.71 in NE 1 mph 7 mph 36 % 0 in 599.00 W/m2
16:24 83.8 °F 53.2 °F 29.72 in East 1 mph 10 mph 35 % 0 in 621.00 W/m2
16:29 83.7 °F 53.1 °F 29.72 in NE 6 mph 10 mph 35 % 0 in 466.00 W/m2
16:34 83.6 °F 53.8 °F 29.72 in SE 2 mph 9 mph 36 % 0 in 272.00 W/m2
16:39 82.9 °F 54 °F 29.72 in ESE 1 mph 9 mph 37 % 0 in 243.00 W/m2
16:45 82.3 °F 52.7 °F 29.72 in Calm   10 mph 36 % 0 in 241.00 W/m2
16:49 82.2 °F 53.3 °F 29.73 in NNE 7 mph 10 mph 37 % 0 in 206.00 W/m2
16:54 81.8 °F 53.7 °F 29.73 in NE 5 mph 10 mph 38 % 0 in 188.00 W/m2
16:59 81.6 °F 53.5 °F 29.73 in NNE 1 mph 8 mph 38 % 0 in 134.00 W/m2
17:04 81.1 °F 53.1 °F 29.73 in NE 1 mph 8 mph 38 % 0 in 86.00 W/m2
17:09 80.5 °F 53.3 °F 29.72 in East 2 mph 11 mph 39 % 0 in 69.00 W/m2
17:14 79.9 °F 53.4 °F 29.73 in NE 3 mph 12 mph 40 % 0 in 77.00 W/m2
17:19 79.4 °F 53 °F 29.72 in NNE 6 mph 12 mph 40 % 0 in 74.00 W/m2
17:24 79 °F 53.3 °F 29.73 in ENE 4 mph 9 mph 41 % 0 in 56.00 W/m2
17:29 78.6 °F 52.9 °F 29.72 in East 3 mph 10 mph 41 % 0 in 37.00 W/m2
17:34 78.3 °F 52.7 °F 29.72 in NNE 6 mph 13 mph 41 % 0 in 25.00 W/m2
17:39 78.1 °F 52.5 °F 29.72 in ESE 3 mph 13 mph 41 % 0 in 16.00 W/m2
17:44 77.9 °F 53 °F 29.72 in ESE 4 mph 11 mph 42 % 0 in 9.00 W/m2
17:49 77.7 °F 52.8 °F 29.72 in ENE 1 mph 11 mph 42 % 0 in 5.00 W/m2
17:54 77.5 °F 52.6 °F 29.72 in ESE 4 mph 9 mph 42 % 0 in 0.00 W/m2
17:59 77.4 °F 52.5 °F 29.73 in SSE 1 mph 12 mph 42 % 0 in 0.00 W/m2
18:04 77 °F 53.4 °F 29.72 in ESE 5 mph 13 mph 44 % 0 in 0.00 W/m2
18:09 76.1 °F 53.8 °F 29.71 in NE 4 mph 13 mph 46 % 0 in 0.00 W/m2
18:14 75.1 °F 55.2 °F 29.72 in SE 8 mph 13 mph 50 % 0 in 0.00 W/m2
18:19 74.3 °F 55 °F 29.73 in ENE 2 mph 11 mph 51 % 0 in 5.00 W/m2
18:24 74 °F 54.2 °F 29.74 in Calm   9 mph 50 % 0 in 5.00 W/m2
18:29 74 °F 55.8 °F 29.76 in West 1 mph 8 mph 53 % 0 in 5.00 W/m2
18:34 73.5 °F 58.3 °F 29.76 in Calm   11 mph 59 % 0 in 5.00 W/m2
18:39 72.4 °F 59.1 °F 29.75 in WSW 6 mph 11 mph 63 % 0 in 12.00 W/m2
18:44 71.1 °F 58.7 °F 29.77 in WNW 2 mph 8 mph 65 % 0 in 16.00 W/m2
18:49 70.3 °F 59.2 °F 29.78 in WSW 5 mph 12 mph 68 % 0 in 12.00 W/m2
18:54 69.7 °F 59.1 °F 29.79 in West 6 mph 12 mph 69 % 0 in 9.00 W/m2
19:00 69.4 °F 58.8 °F 29.80 in WNW 9 mph 12 mph 69 % 0 in 7.00 W/m2
19:04 68.8 °F 57.8 °F 29.81 in North 5 mph 14 mph 68 % 0 in 9.00 W/m2
19:09 67.7 °F 57.6 °F 29.81 in Calm   14 mph 70 % 0 in 18.00 W/m2
19:14 67.1 °F 57.8 °F 29.82 in WSW 3 mph 10 mph 72 % 0 in 35.00 W/m2
19:19 66.7 °F 58.1 °F 29.83 in NNW 5 mph 9 mph 74 % 0.01 in 53.00 W/m2
19:24 65.8 °F 57.7 °F 29.83 in NW 8 mph 16 mph 75 % 0.01 in 42.00 W/m2
19:29 64.8 °F 57.8 °F 29.82 in ENE 13 mph 19 mph 78 % 0.01 in 51.00 W/m2
19:34 63.6 °F 56.6 °F 29.82 in ENE 7 mph 19 mph 78 % 0.01 in 69.00 W/m2
19:39 62.8 °F 55.5 °F 29.83 in NE 2 mph 19 mph 77 % 0.01 in 53.00 W/m2
SE Aurora, Colorado Weather
Compliments of Weather Underground - 2 mb
top